createdAt,value
2024-04-06T00:01:51.424Z,1185
2024-04-06T00:11:50.641Z,1185
2024-04-06T00:21:49.844Z,1185
2024-04-06T00:31:49.069Z,1185
2024-04-06T00:41:48.263Z,1185
2024-04-06T00:51:47.494Z,1185
2024-04-06T01:01:56.998Z,1185
2024-04-06T01:11:45.918Z,1185
2024-04-06T01:21:45.108Z,1185
2024-04-06T01:31:44.328Z,1185
2024-04-06T01:41:43.530Z,1185
2024-04-06T01:51:42.766Z,1185
2024-04-06T02:01:41.948Z,1185
2024-04-06T02:11:41.174Z,1185
2024-04-06T02:21:40.368Z,1185
2024-04-06T02:31:39.599Z,1185
2024-04-06T02:41:38.787Z,1185
2024-04-06T02:51:38.016Z,1185
2024-04-06T03:02:05.073Z,0
2024-04-06T03:12:04.299Z,0
2024-04-06T03:22:03.493Z,0
2024-04-06T03:32:02.713Z,0
2024-04-06T03:42:01.909Z,0
2024-04-06T03:52:01.137Z,0
2024-04-06T04:02:00.327Z,0
2024-04-06T04:11:59.590Z,0
2024-04-06T04:21:58.864Z,0
2024-04-06T04:31:58.159Z,0
2024-04-06T04:41:57.420Z,0
2024-04-06T04:51:56.717Z,0
2024-04-06T05:01:55.943Z,0
2024-04-06T05:11:55.169Z,0
2024-04-06T05:21:54.359Z,0
2024-04-06T05:31:53.581Z,0
2024-04-06T05:41:52.778Z,0
2024-04-06T05:51:51.996Z,0
2024-04-06T06:01:51.196Z,0
2024-04-06T06:11:50.422Z,0
2024-04-06T06:21:49.617Z,0
2024-04-06T06:31:48.844Z,0
2024-04-06T06:41:48.043Z,0
2024-04-06T06:51:47.272Z,0
2024-04-06T07:01:46.468Z,0
2024-04-06T07:11:46.674Z,0
2024-04-06T07:21:45.853Z,0
2024-04-06T07:31:45.074Z,0
2024-04-06T07:41:44.273Z,0
2024-04-06T07:51:43.502Z,0
2024-04-06T08:01:42.703Z,0
2024-04-06T08:11:41.936Z,0
2024-04-06T08:21:41.128Z,91.8
2024-04-06T08:31:40.430Z,93.7
2024-04-06T08:41:39.633Z,100.6
2024-04-06T08:51:38.853Z,102.6
2024-04-06T09:02:05.234Z,104
2024-04-06T09:12:04.458Z,106.1
2024-04-06T09:22:03.665Z,108.6
2024-04-06T09:32:02.899Z,111
2024-04-06T09:42:02.080Z,113.2
2024-04-06T09:52:01.298Z,114.1
2024-04-06T10:02:00.502Z,113.8
2024-04-06T10:11:59.773Z,113.6
2024-04-06T10:21:59.035Z,113.3
2024-04-06T10:31:58.327Z,113.3
2024-04-06T10:41:57.591Z,113.1
2024-04-06T10:51:56.876Z,113.9
2024-04-06T11:01:56.113Z,115.3
2024-04-06T11:11:55.428Z,116.6
2024-04-06T11:21:54.535Z,117.6
2024-04-06T11:31:53.756Z,118.3
2024-04-06T11:41:52.954Z,119.2
2024-04-06T11:51:52.170Z,119.3
2024-04-06T12:01:51.375Z,119.7
2024-04-06T12:11:50.600Z,119.9
2024-04-06T12:21:49.792Z,120
2024-04-06T12:31:49.015Z,120.2
2024-04-06T12:41:48.212Z,119.8
2024-04-06T12:51:47.444Z,118.8
2024-04-06T13:01:46.630Z,117.4
2024-04-06T13:11:45.855Z,115.8
2024-04-06T13:21:45.050Z,115
2024-04-06T13:31:44.275Z,114.8
2024-04-06T13:41:43.467Z,114.5
2024-04-06T13:51:42.714Z,114.1
2024-04-06T14:01:41.885Z,113
2024-04-06T14:11:41.115Z,110.8
2024-04-06T14:21:40.303Z,108.4
2024-04-06T14:31:39.530Z,107.1
2024-04-06T14:41:38.722Z,110.8
2024-04-06T14:51:38.109Z,110.8
2024-04-06T15:02:04.407Z,0
2024-04-06T15:12:03.627Z,0
2024-04-06T15:22:02.818Z,0
2024-04-06T15:32:02.040Z,0
2024-04-06T15:42:01.235Z,0
2024-04-06T15:52:00.469Z,0
2024-04-06T16:01:59.657Z,0
2024-04-06T16:11:58.924Z,0
2024-04-06T16:21:58.201Z,0
2024-04-06T16:31:57.512Z,0
2024-04-06T16:41:56.761Z,0
2024-04-06T16:51:57.514Z,0
2024-04-06T17:01:56.715Z,0
2024-04-06T17:11:55.952Z,0
2024-04-06T17:21:55.139Z,0
2024-04-06T17:31:54.377Z,0
2024-04-06T17:41:53.559Z,0
2024-04-06T17:51:52.782Z,0
2024-04-06T18:01:51.975Z,0
2024-04-06T18:11:53.214Z,0
2024-04-06T18:21:50.391Z,0
2024-04-06T18:31:49.620Z,0
2024-04-06T18:41:48.820Z,0
2024-04-06T18:51:48.037Z,0
2024-04-06T19:01:47.237Z,0
2024-04-06T19:11:46.466Z,0
2024-04-06T19:21:45.670Z,0
2024-04-06T19:31:44.900Z,0
2024-04-06T19:41:44.093Z,0
2024-04-06T19:51:43.313Z,0
2024-04-06T20:01:42.536Z,0
2024-04-06T20:11:41.738Z,0
2024-04-06T20:21:40.931Z,0
2024-04-06T20:31:40.167Z,0
2024-04-06T20:41:39.359Z,0
2024-04-06T20:51:38.600Z,0
2024-04-06T21:02:04.573Z,0
2024-04-06T21:12:03.798Z,0
2024-04-06T21:22:02.988Z,0
2024-04-06T21:32:02.228Z,0
2024-04-06T21:42:01.415Z,0
2024-04-06T21:52:00.646Z,0
2024-04-06T22:01:59.848Z,0
2024-04-06T22:11:59.124Z,0
2024-04-06T22:21:58.412Z,0
2024-04-06T22:31:57.673Z,0
2024-04-06T22:41:56.935Z,0
2024-04-06T22:51:56.235Z,0
2024-04-06T23:01:55.459Z,0
2024-04-06T23:11:54.691Z,0
2024-04-06T23:21:53.884Z,0
2024-04-06T23:31:53.118Z,0
2024-04-06T23:41:52.314Z,0
2024-04-06T23:51:51.532Z,0
